SILO ALERT LOG
| Silo ID | Alert Type | Alert Message | Silo Type | Points | Depth (mm) | Strength | Temperature (°C) | Humidity (%) | Height (mm) | Volume (㎥) | Weight (t) | Flag | Time |
|---|---|---|---|---|---|---|---|---|---|---|---|---|---|
| WJWJR05 | Humidity | 습도센서 측정값이 80% 초과 | 평 | 54 | 7660 | 2639 | 24.9 | 80.1 | 59 | 6.786 | 4.29 | 0 | 2026-07-19 07:25:50.000 |
| WJWJR01 | Humidity | 습도센서 측정값이 80% 초과 | 평 | 77 | 7680 | 1105 | 23 | 90.9 | -40 | -4.524 | 0 | 0 | 2026-07-19 06:26:02.000 |
| WJWJR01 | Humidity | 습도센서 측정값이 80% 초과 | 평 | 77 | 7640 | 1106 | 23.1 | 90.8 | 0 | 0 | 0 | 0 | 2026-07-19 05:26:01.000 |
| WJWJR01 | Humidity | 습도센서 측정값이 80% 초과 | 평 | 75 | 7640 | 1111 | 23.1 | 90.5 | 0 | 0 | 0 | 0 | 2026-07-19 04:26:01.000 |
| WJWJR01 | Humidity | 습도센서 측정값이 80% 초과 | 평 | 76 | 7690 | 1099 | 23.1 | 90.3 | -50 | -5.655 | 0 | 0 | 2026-07-19 03:26:02.000 |
| WJWJR01 | Humidity | 습도센서 측정값이 80% 초과 | 평 | 77 | 7680 | 1091 | 23.2 | 90 | -40 | -4.524 | 0 | 0 | 2026-07-19 02:26:00.000 |
| WJWJR01 | Humidity | 습도센서 측정값이 80% 초과 | 평 | 77 | 7680 | 1106 | 23.2 | 89.6 | -40 | -4.524 | 0 | 0 | 2026-07-19 01:26:06.000 |
| WJWJR01 | Humidity | 습도센서 측정값이 80% 초과 | 평 | 84 | 7720 | 1101 | 23.3 | 89.2 | -80 | -9.048 | 0 | 0 | 2026-07-19 00:26:00.000 |
| WJWJR01 | Humidity | 습도센서 측정값이 80% 초과 | 평 | 77 | 7690 | 1098 | 23.5 | 88.8 | -50 | -5.655 | 0 | 0 | 2026-07-18 23:26:00.000 |
| WJWJR01 | Humidity | 습도센서 측정값이 80% 초과 | 평 | 83 | 7720 | 1101 | 23.7 | 88 | -80 | -9.048 | 0 | 0 | 2026-07-18 22:25:56.000 |
| WJWJR01 | Humidity | 습도센서 측정값이 80% 초과 | 평 | 83 | 7690 | 1078 | 24 | 87 | -50 | -5.655 | 0 | 0 | 2026-07-18 21:26:00.000 |
| WJWJR01 | Humidity | 습도센서 측정값이 80% 초과 | 평 | 84 | 7700 | 1096 | 24.2 | 86 | -60 | -6.786 | 0 | 0 | 2026-07-18 20:26:00.000 |
| WJWJR01 | Humidity | 습도센서 측정값이 80% 초과 | 평 | 76 | 7690 | 1065 | 24.5 | 85.3 | -50 | -5.655 | 0 | 0 | 2026-07-18 19:25:59.000 |
| WJWJR01 | Humidity | 습도센서 측정값이 80% 초과 | 평 | 83 | 7710 | 1097 | 24.7 | 85.5 | -70 | -7.917 | 0 | 0 | 2026-07-18 18:26:01.000 |
| WJWJR01 | Humidity | 습도센서 측정값이 80% 초과 | 평 | 77 | 7680 | 1108 | 24.6 | 86.9 | -40 | -4.524 | 0 | 0 | 2026-07-18 17:26:00.000 |
| WJWJR01 | Humidity | 습도센서 측정값이 80% 초과 | 평 | 76 | 7690 | 1081 | 24.2 | 87.1 | -50 | -5.655 | 0 | 0 | 2026-07-18 16:25:59.000 |
| WJWJR01 | Humidity | 습도센서 측정값이 80% 초과 | 평 | 74 | 7680 | 1065 | 24.1 | 87.8 | -40 | -4.524 | 0 | 0 | 2026-07-18 15:26:01.000 |
| WJWJR01 | Humidity | 습도센서 측정값이 80% 초과 | 평 | 84 | 7700 | 1106 | 23.7 | 89.3 | -60 | -6.786 | 0 | 0 | 2026-07-18 14:25:58.000 |
| WJWJR01 | Humidity | 습도센서 측정값이 80% 초과 | 평 | 77 | 7690 | 1082 | 23.4 | 89.8 | -50 | -5.655 | 0 | 0 | 2026-07-18 13:26:05.000 |
| WJWJR01 | Humidity | 습도센서 측정값이 80% 초과 | 평 | 76 | 7660 | 1098 | 23.2 | 90.1 | -20 | -2.262 | 0 | 0 | 2026-07-18 12:25:58.000 |
[첫 페이지] [27] [28] [29] [30] 31 [32] [33] [34] [35] [마지막 페이지]